Time;durP1;ratioP1;P1;durP2;ratioP2;P2;SDS_P1;SDS_P2;PMS_P1;PMS_P2;Temp;Humidity;BMP_temperature;BMP_pressure;BME280_temperature;BME280_humidity;BME280_pressure;Samples;Min_cycle;Max_cycle;Signal;HPM_P1;HPM_P2
2023/02/22 00:02:25;;;;;;;53.25;24.50;;;;;;;;;;5045962;28;20247;-66
2023/02/22 00:04:52;;;;;;;58.55;23.50;;;;;;;;;;5053135;28;20189;-66
2023/02/22 00:07:20;;;;;;;56.85;24.65;;;;;;;;;;5053865;28;20239;-67
2023/02/22 00:09:46;;;;;;;58.35;24.30;;;;;;;;;;5056586;28;20276;-66
2023/02/22 00:12:11;;;;;;;62.15;25.98;;;;;;;;;;5050474;28;20300;-67
2023/02/22 00:14:36;;;;;;;54.53;24.00;;;;;;;;;;5053849;28;20197;-67
2023/02/22 00:17:02;;;;;;;56.80;24.55;;;;;;;;;;5057182;28;20181;-66
2023/02/22 00:19:29;;;;;;;58.15;24.92;;;;;;;;;;5055235;28;20276;-67
2023/02/22 00:21:56;;;;;;;59.65;25.92;;;;;;;;;;5055349;28;20173;-67
2023/02/22 00:24:22;;;;;;;57.75;24.30;;;;;;;;;;5054874;28;20383;-67
2023/02/22 00:26:55;;;;;;;63.90;25.85;;;;;;;;;;5059600;28;20589;-67
2023/02/22 00:29:22;;;;;;;58.15;24.92;;;;;;;;;;5053654;28;20301;-66
2023/02/22 00:31:47;;;;;;;62.97;25.30;;;;;;;;;;5055601;28;20295;-66
2023/02/22 00:34:13;;;;;;;58.78;25.35;;;;;;;;;;5055761;28;20287;-66
2023/02/22 00:36:47;;;;;;;63.47;25.30;;;;;;;;;;5050955;28;20700;-67
2023/02/22 00:39:12;;;;;;;51.75;23.02;;;;;;;;;;5055555;28;20184;-67
2023/02/22 00:41:37;;;;;;;57.97;24.45;;;;;;;;;;5048573;28;20666;-66
2023/02/22 00:44:03;;;;;;;56.45;23.92;;;;;;;;;;5052873;28;20197;-66
2023/02/22 00:46:28;;;;;;;56.10;24.17;;;;;;;;;;5051371;28;20225;-67
2023/02/22 00:48:54;;;;;;;57.75;25.20;;;;;;;;;;5052655;28;20244;-67
2023/02/22 00:51:19;;;;;;;59.83;24.95;;;;;;;;;;5052930;28;20679;-67
2023/02/22 00:53:44;;;;;;;57.95;25.52;;;;;;;;;;5056698;28;20185;-66
2023/02/22 00:56:10;;;;;;;61.55;25.75;;;;;;;;;;5052752;28;20185;-67
2023/02/22 00:58:35;;;;;;;63.53;25.73;;;;;;;;;;5050791;28;20216;-69
2023/02/22 01:01:01;;;;;;;60.85;25.98;;;;;;;;;;5053316;28;20217;-66
2023/02/22 01:03:26;;;;;;;59.13;26.08;;;;;;;;;;5051805;28;20570;-66
2023/02/22 01:05:52;;;;;;;57.20;24.55;;;;;;;;;;5052582;28;20198;-66
2023/02/22 01:08:17;;;;;;;58.42;25.63;;;;;;;;;;5057737;28;20189;-66
2023/02/22 01:10:43;;;;;;;57.60;24.88;;;;;;;;;;5054575;28;20197;-66
2023/02/22 01:13:11;;;;;;;58.95;24.90;;;;;;;;;;5053415;28;20259;-67
2023/02/22 01:15:39;;;;;;;61.53;26.00;;;;;;;;;;5053177;28;20220;-66
2023/02/22 01:18:05;;;;;;;61.42;25.98;;;;;;;;;;5055087;28;20348;-66
2023/02/22 01:20:31;;;;;;;59.42;25.77;;;;;;;;;;5048329;28;20291;-67
2023/02/22 01:22:58;;;;;;;61.35;26.08;;;;;;;;;;5053431;28;20785;-67
2023/02/22 01:25:27;;;;;;;61.47;26.27;;;;;;;;;;5055825;28;20286;-66
2023/02/22 01:27:53;;;;;;;56.58;25.45;;;;;;;;;;5052336;28;20564;-66
2023/02/22 01:30:22;;;;;;;69.90;27.48;;;;;;;;;;5052953;28;20618;-67
2023/02/22 01:32:49;;;;;;;64.25;28.70;;;;;;;;;;5052143;28;20262;-67
2023/02/22 01:35:17;;;;;;;63.10;27.35;;;;;;;;;;5054720;28;20185;-67
2023/02/22 01:37:43;;;;;;;64.07;28.15;;;;;;;;;;5054053;28;20185;-66
2023/02/22 01:40:15;;;;;;;62.90;28.90;;;;;;;;;;5056691;28;20216;-67
2023/02/22 01:42:41;;;;;;;69.78;29.08;;;;;;;;;;5054056;28;20698;-67
2023/02/22 01:45:43;;;;;;;63.80;28.38;;;;;;;;;;5052914;28;20683;-67
2023/02/22 01:48:27;;;;;;;65.47;28.48;;;;;;;;;;5048978;28;20201;-67
2023/02/22 01:51:09;;;;;;;68.15;29.25;;;;;;;;;;5048745;28;20197;-67
2023/02/22 01:53:39;;;;;;;73.35;31.02;;;;;;;;;;5052354;28;20327;-67
2023/02/22 01:56:05;;;;;;;72.20;32.83;;;;;;;;;;5050761;28;20288;-66
2023/02/22 01:58:34;;;;;;;67.43;31.55;;;;;;;;;;5051116;28;20303;-66
2023/02/22 02:01:00;;;;;;;75.18;33.60;;;;;;;;;;5052121;28;20209;-66
2023/02/22 02:03:29;;;;;;;68.75;32.80;;;;;;;;;;5048737;28;20223;-66
2023/02/22 02:05:59;;;;;;;72.05;32.58;;;;;;;;;;5051127;28;20207;-66
2023/02/22 02:08:35;;;;;;;66.43;30.45;;;;;;;;;;5052396;28;20200;-67
2023/02/22 02:11:03;;;;;;;76.38;32.85;;;;;;;;;;5055645;28;20184;-67
2023/02/22 02:13:28;;;;;;;70.32;32.95;;;;;;;;;;5047257;28;20208;-67
2023/02/22 02:15:54;;;;;;;67.18;32.20;;;;;;;;;;5051058;28;20185;-66
2023/02/22 02:18:21;;;;;;;61.15;28.45;;;;;;;;;;5052209;28;20181;-66
2023/02/22 02:21:28;;;;;;;74.15;33.30;;;;;;;;;;5052027;28;20189;-66
2023/02/22 02:24:19;;;;;;;72.03;31.92;;;;;;;;;;5047514;28;20208;-67
2023/02/22 02:27:10;;;;;;;65.43;30.27;;;;;;;;;;5051793;28;20189;-67
2023/02/22 02:30:13;;;;;;;75.32;33.88;;;;;;;;;;5059800;28;20302;-67
2023/02/22 02:33:04;;;;;;;77.15;34.10;;;;;;;;;;5057088;28;20861;-67
2023/02/22 02:36:15;;;;;;;77.32;34.03;;;;;;;;;;5058461;28;20199;-67
2023/02/22 02:38:54;;;;;;;77.32;34.00;;;;;;;;;;5056821;28;20208;-67
2023/02/22 02:41:26;;;;;;;75.68;33.75;;;;;;;;;;5058002;28;20193;-69
2023/02/22 02:43:58;;;;;;;81.60;35.25;;;;;;;;;;5052864;28;20201;-68
2023/02/22 02:46:30;;;;;;;84.18;36.47;;;;;;;;;;5055174;28;20195;-66
2023/02/22 02:49:00;;;;;;;79.07;34.28;;;;;;;;;;5051626;28;20325;-69
2023/02/22 02:51:30;;;;;;;82.68;37.40;;;;;;;;;;5054947;28;20738;-66
2023/02/22 02:53:56;;;;;;;85.22;36.33;;;;;;;;;;5056229;28;20285;-67
2023/02/22 02:56:22;;;;;;;74.20;33.63;;;;;;;;;;5055508;28;20263;-69
2023/02/22 02:58:51;;;;;;;81.45;35.10;;;;;;;;;;5056757;28;20652;-68
2023/02/22 03:01:39;;;;;;;78.32;33.67;;;;;;;;;;5052836;28;20205;-67
2023/02/22 03:04:19;;;;;;;85.13;36.42;;;;;;;;;;5050414;28;20196;-68
2023/02/22 03:07:22;;;;;;;88.50;38.83;;;;;;;;;;5055209;28;20199;-68
2023/02/22 03:10:12;;;;;;;87.13;36.33;;;;;;;;;;5056090;28;20632;-68
2023/02/22 03:13:03;;;;;;;81.57;35.75;;;;;;;;;;5050465;28;20296;-68
2023/02/22 03:15:35;;;;;;;82.85;35.30;;;;;;;;;;5053702;28;20193;-68
2023/02/22 03:18:16;;;;;;;88.35;36.60;;;;;;;;;;5050114;28;20598;-67
2023/02/22 03:21:00;;;;;;;89.15;35.35;;;;;;;;;;5054654;28;20185;-68
2023/02/22 03:23:37;;;;;;;89.97;36.83;;;;;;;;;;5050467;28;21155;-68
2023/02/22 03:26:10;;;;;;;91.97;36.22;;;;;;;;;;5052312;28;20204;-68
2023/02/22 03:28:39;;;;;;;87.72;34.65;;;;;;;;;;5048842;28;20263;-68
2023/02/22 03:31:12;;;;;;;91.53;35.70;;;;;;;;;;5058466;28;20199;-68
2023/02/22 03:33:53;;;;;;;99.45;37.88;;;;;;;;;;5055426;28;20223;-68
2023/02/22 03:36:29;;;;;;;89.35;35.53;;;;;;;;;;5053072;28;20189;-68
2023/02/22 03:38:57;;;;;;;90.03;36.47;;;;;;;;;;5051382;28;20189;-68
2023/02/22 03:41:24;;;;;;;95.45;36.35;;;;;;;;;;5054639;28;20189;-68
2023/02/22 03:43:56;;;;;;;92.88;36.40;;;;;;;;;;5050989;28;20229;-68
2023/02/22 03:46:28;;;;;;;93.45;35.78;;;;;;;;;;5056082;28;20193;-68
2023/02/22 03:49:09;;;;;;;96.55;37.00;;;;;;;;;;5051504;28;20565;-68
2023/02/22 03:51:35;;;;;;;96.70;36.67;;;;;;;;;;5052620;28;20300;-68
2023/02/22 03:54:03;;;;;;;96.15;38.40;;;;;;;;;;5055823;28;20188;-68
2023/02/22 03:56:34;;;;;;;90.32;36.72;;;;;;;;;;5056977;28;20182;-68
2023/02/22 03:59:05;;;;;;;103.22;38.28;;;;;;;;;;5053053;28;20457;-68
2023/02/22 04:01:31;;;;;;;94.32;37.10;;;;;;;;;;5050381;28;20492;-68
2023/02/22 04:03:56;;;;;;;96.55;37.28;;;;;;;;;;5050425;28;20274;-68
2023/02/22 04:06:22;;;;;;;105.25;37.70;;;;;;;;;;5051617;28;20657;-68
2023/02/22 04:08:47;;;;;;;95.00;36.63;;;;;;;;;;5053892;28;20215;-68
2023/02/22 04:11:12;;;;;;;102.07;37.00;;;;;;;;;;5051676;28;20188;-68
2023/02/22 04:13:38;;;;;;;98.45;38.08;;;;;;;;;;5054448;28;20263;-67
2023/02/22 04:16:03;;;;;;;96.50;37.60;;;;;;;;;;5050284;28;20620;-68
2023/02/22 04:18:29;;;;;;;101.32;37.22;;;;;;;;;;5058812;28;20201;-68
2023/02/22 04:20:54;;;;;;;96.20;38.08;;;;;;;;;;5050603;28;20224;-68
2023/02/22 04:23:20;;;;;;;109.88;39.75;;;;;;;;;;5054684;28;20181;-68
2023/02/22 04:25:45;;;;;;;92.93;35.75;;;;;;;;;;5049978;28;20223;-68
2023/02/22 04:28:11;;;;;;;112.07;42.00;;;;;;;;;;5051773;28;20220;-67
2023/02/22 04:30:36;;;;;;;106.18;40.78;;;;;;;;;;5049080;28;20193;-68
2023/02/22 04:33:01;;;;;;;107.32;40.28;;;;;;;;;;5049823;28;20550;-69
2023/02/22 04:35:27;;;;;;;96.70;35.83;;;;;;;;;;5051471;28;20184;-68
2023/02/22 04:37:52;;;;;;;103.30;37.42;;;;;;;;;;5053630;28;20227;-68
2023/02/22 04:40:20;;;;;;;98.10;37.25;;;;;;;;;;5049968;28;20664;-68
2023/02/22 04:42:46;;;;;;;115.32;42.72;;;;;;;;;;5050547;28;20211;-68
2023/02/22 04:45:11;;;;;;;110.28;40.53;;;;;;;;;;5056018;28;20201;-68
2023/02/22 04:47:37;;;;;;;111.03;40.08;;;;;;;;;;5053436;28;20346;-68
2023/02/22 04:50:07;;;;;;;114.23;41.60;;;;;;;;;;5053514;28;20192;-68
2023/02/22 04:52:32;;;;;;;117.28;42.42;;;;;;;;;;5052960;28;20537;-68
2023/02/22 04:54:58;;;;;;;119.97;43.83;;;;;;;;;;5054219;28;20260;-68
2023/02/22 04:57:23;;;;;;;119.37;43.33;;;;;;;;;;5051633;28;20181;-68
2023/02/22 04:59:49;;;;;;;122.63;44.57;;;;;;;;;;5053465;28;20700;-68
2023/02/22 05:02:16;;;;;;;121.40;42.10;;;;;;;;;;5053252;28;20185;-68
2023/02/22 05:04:41;;;;;;;123.00;45.38;;;;;;;;;;5048354;28;20220;-68
2023/02/22 05:07:06;;;;;;;128.05;43.53;;;;;;;;;;5052721;28;20204;-68
2023/02/22 05:09:32;;;;;;;119.95;41.35;;;;;;;;;;5050445;28;20234;-67
2023/02/22 05:11:57;;;;;;;121.88;41.60;;;;;;;;;;5056482;28;20207;-67
2023/02/22 05:14:25;;;;;;;126.27;44.33;;;;;;;;;;5052235;28;20220;-68
2023/02/22 05:16:51;;;;;;;123.43;42.70;;;;;;;;;;5057656;28;20615;-67
2023/02/22 05:19:16;;;;;;;122.77;42.60;;;;;;;;;;5053648;28;21328;-68
2023/02/22 05:21:41;;;;;;;112.07;39.70;;;;;;;;;;5051600;28;20255;-68
2023/02/22 05:24:07;;;;;;;126.07;42.75;;;;;;;;;;5051293;28;20277;-67
2023/02/22 05:26:32;;;;;;;129.52;43.13;;;;;;;;;;5052231;28;20682;-68
2023/02/22 05:28:57;;;;;;;130.03;44.93;;;;;;;;;;5055103;28;20228;-68
2023/02/22 05:31:23;;;;;;;137.00;45.42;;;;;;;;;;5052330;28;20964;-68
2023/02/22 05:33:48;;;;;;;119.15;41.30;;;;;;;;;;5053108;28;20254;-67
2023/02/22 05:36:15;;;;;;;144.80;45.28;;;;;;;;;;5054047;28;20193;-67
2023/02/22 05:38:42;;;;;;;131.23;43.00;;;;;;;;;;5052799;28;20213;-70
2023/02/22 05:41:12;;;;;;;122.97;41.80;;;;;;;;;;5051922;28;20185;-66
2023/02/22 05:43:38;;;;;;;133.35;45.67;;;;;;;;;;5053230;28;20197;-66
2023/02/22 05:46:03;;;;;;;138.18;47.55;;;;;;;;;;5054552;28;20390;-67
2023/02/22 05:48:29;;;;;;;142.43;48.72;;;;;;;;;;5051976;28;20356;-66
2023/02/22 05:50:55;;;;;;;143.35;48.08;;;;;;;;;;5050179;28;20231;-66
2023/02/22 05:53:22;;;;;;;134.25;46.55;;;;;;;;;;5052010;28;20599;-66
2023/02/22 05:55:48;;;;;;;137.65;47.20;;;;;;;;;;5055528;28;20251;-66
2023/02/22 05:58:13;;;;;;;147.23;46.97;;;;;;;;;;5051115;28;20217;-68
2023/02/22 06:00:39;;;;;;;143.75;45.95;;;;;;;;;;5052016;28;20213;-66
2023/02/22 06:03:07;;;;;;;142.70;46.85;;;;;;;;;;5057959;28;20287;-68
2023/02/22 06:05:33;;;;;;;140.63;45.13;;;;;;;;;;5055118;28;20751;-66
2023/02/22 06:07:59;;;;;;;142.35;45.10;;;;;;;;;;5054058;28;20244;-67
2023/02/22 06:10:26;;;;;;;138.15;42.95;;;;;;;;;;5055736;28;20224;-68
2023/02/22 06:12:52;;;;;;;150.73;46.07;;;;;;;;;;5057045;28;20672;-66
2023/02/22 06:15:19;;;;;;;149.43;44.87;;;;;;;;;;5053989;28;20195;-66
2023/02/22 06:17:45;;;;;;;151.73;47.13;;;;;;;;;;5059051;28;20254;-66
2023/02/22 06:20:12;;;;;;;142.80;45.28;;;;;;;;;;5054692;28;20197;-66
2023/02/22 06:22:40;;;;;;;139.50;43.83;;;;;;;;;;5054374;28;20597;-69
2023/02/22 06:25:06;;;;;;;143.07;41.22;;;;;;;;;;5053157;28;20185;-68
2023/02/22 06:27:32;;;;;;;149.45;42.80;;;;;;;;;;5053141;28;20220;-66
2023/02/22 06:29:59;;;;;;;141.40;42.42;;;;;;;;;;5058368;28;20274;-66
2023/02/22 06:32:24;;;;;;;139.93;40.63;;;;;;;;;;5059147;28;20213;-68
2023/02/22 06:34:50;;;;;;;144.70;42.88;;;;;;;;;;5053211;28;20339;-68
2023/02/22 06:37:15;;;;;;;143.93;44.58;;;;;;;;;;5055997;28;20578;-68
2023/02/22 06:39:41;;;;;;;145.95;42.17;;;;;;;;;;5059681;28;20227;-67
2023/02/22 06:42:06;;;;;;;148.95;44.28;;;;;;;;;;5063246;28;20185;-68
2023/02/22 06:44:31;;;;;;;166.25;46.60;;;;;;;;;;5055565;28;20197;-68
2023/02/22 06:46:58;;;;;;;165.85;46.97;;;;;;;;;;5055571;28;20194;-68
2023/02/22 06:49:25;;;;;;;167.65;47.15;;;;;;;;;;5057119;28;20188;-68
2023/02/22 06:51:51;;;;;;;158.98;45.97;;;;;;;;;;5057773;28;20201;-68
2023/02/22 06:54:16;;;;;;;172.82;46.50;;;;;;;;;;5061469;28;20181;-67
2023/02/22 06:56:42;;;;;;;177.70;48.03;;;;;;;;;;5057783;28;20303;-68
2023/02/22 06:59:07;;;;;;;179.88;47.53;;;;;;;;;;5057911;28;20193;-68
2023/02/22 07:01:32;;;;;;;179.43;48.72;;;;;;;;;;5061477;28;20240;-68
2023/02/22 07:03:58;;;;;;;191.18;49.58;;;;;;;;;;5057171;28;20453;-68
2023/02/22 07:06:23;;;;;;;165.87;46.80;;;;;;;;;;5056718;28;20262;-69
2023/02/22 07:08:49;;;;;;;182.40;50.47;;;;;;;;;;5053448;28;20271;-68
2023/02/22 07:11:15;;;;;;;181.70;46.80;;;;;;;;;;5053006;28;20224;-68
2023/02/22 07:13:41;;;;;;;187.25;47.88;;;;;;;;;;5054568;28;20248;-67
2023/02/22 07:16:06;;;;;;;174.07;48.08;;;;;;;;;;5054733;28;20517;-67
2023/02/22 07:18:32;;;;;;;199.07;50.30;;;;;;;;;;5053396;28;20199;-67
2023/02/22 07:20:57;;;;;;;201.33;51.77;;;;;;;;;;5050603;28;20602;-67
2023/02/22 07:23:23;;;;;;;190.47;49.07;;;;;;;;;;5052060;28;20186;-66
2023/02/22 07:25:49;;;;;;;192.07;48.20;;;;;;;;;;5051334;28;20293;-67
2023/02/22 07:28:14;;;;;;;190.32;49.38;;;;;;;;;;5051794;28;20232;-67
2023/02/22 07:30:40;;;;;;;187.45;49.35;;;;;;;;;;5052861;28;20189;-67
2023/02/22 07:33:08;;;;;;;206.25;50.47;;;;;;;;;;5056651;28;20699;-66
2023/02/22 07:35:38;;;;;;;191.30;52.42;;;;;;;;;;5055957;28;20688;-67
2023/02/22 07:38:06;;;;;;;191.98;49.72;;;;;;;;;;5055142;28;20238;-67
2023/02/22 07:40:32;;;;;;;209.77;52.95;;;;;;;;;;5057704;28;20708;-67
2023/02/22 07:43:13;;;;;;;207.48;53.25;;;;;;;;;;5053549;28;20327;-67
2023/02/22 07:45:38;;;;;;;217.83;54.03;;;;;;;;;;5065591;28;20314;-66
2023/02/22 07:48:04;;;;;;;207.52;52.08;;;;;;;;;;5057064;28;20188;-66
2023/02/22 07:50:31;;;;;;;210.38;54.33;;;;;;;;;;5056764;28;20730;-66
2023/02/22 07:53:00;;;;;;;210.30;51.63;;;;;;;;;;5056377;28;20212;-66
2023/02/22 07:55:29;;;;;;;187.93;47.03;;;;;;;;;;5061951;28;20196;-66
2023/02/22 07:57:57;;;;;;;177.00;47.65;;;;;;;;;;5052957;28;20558;-66
2023/02/22 08:00:25;;;;;;;175.38;47.83;;;;;;;;;;5060097;28;20688;-67
2023/02/22 08:02:51;;;;;;;161.57;44.58;;;;;;;;;;5047809;28;20194;-67
2023/02/22 08:05:19;;;;;;;168.93;44.95;;;;;;;;;;5051284;28;20193;-67
2023/02/22 08:07:44;;;;;;;171.77;45.53;;;;;;;;;;5052377;28;20545;-67
2023/02/22 08:10:10;;;;;;;175.45;48.22;;;;;;;;;;5053704;28;20188;-67
2023/02/22 08:12:37;;;;;;;170.18;45.58;;;;;;;;;;5064003;28;20205;-67
2023/02/22 08:15:03;;;;;;;170.20;47.40;;;;;;;;;;5065946;28;20204;-67
2023/02/22 08:17:29;;;;;;;153.95;44.00;;;;;;;;;;5052508;28;20653;-67
2023/02/22 08:19:54;;;;;;;171.90;45.72;;;;;;;;;;5059580;28;20409;-67
2023/02/22 08:22:21;;;;;;;160.40;43.65;;;;;;;;;;5053051;28;20177;-67
2023/02/22 08:24:46;;;;;;;155.13;44.28;;;;;;;;;;5065591;28;20196;-67
2023/02/22 08:27:12;;;;;;;163.18;45.10;;;;;;;;;;5053261;28;20778;-67
2023/02/22 08:29:37;;;;;;;158.80;43.75;;;;;;;;;;5067545;28;20228;-67
2023/02/22 08:32:02;;;;;;;154.85;43.78;;;;;;;;;;5063707;28;20255;-67
2023/02/22 08:34:28;;;;;;;153.90;46.25;;;;;;;;;;5068864;28;20238;-67
2023/02/22 08:36:54;;;;;;;166.70;45.65;;;;;;;;;;5055813;28;20189;-67
2023/02/22 08:39:20;;;;;;;148.05;43.15;;;;;;;;;;5055856;28;20203;-68
2023/02/22 08:41:45;;;;;;;153.52;44.90;;;;;;;;;;5055050;28;20594;-67
2023/02/22 08:44:11;;;;;;;143.77;42.55;;;;;;;;;;5055975;28;20189;-67
2023/02/22 08:46:37;;;;;;;138.02;41.67;;;;;;;;;;5060603;28;20185;-68
2023/02/22 08:49:03;;;;;;;124.15;40.67;;;;;;;;;;5053080;28;20556;-67
2023/02/22 08:51:34;;;;;;;120.95;39.10;;;;;;;;;;5050544;28;20376;-67
2023/02/22 08:53:59;;;;;;;122.82;39.72;;;;;;;;;;5050397;28;20193;-67
2023/02/22 08:56:24;;;;;;;105.55;37.10;;;;;;;;;;5055559;28;20246;-67
2023/02/22 08:58:50;;;;;;;98.70;35.08;;;;;;;;;;5064715;28;20628;-67
2023/02/22 09:01:15;;;;;;;103.28;36.55;;;;;;;;;;5048004;28;20213;-68
2023/02/22 09:03:40;;;;;;;108.53;35.78;;;;;;;;;;5064091;28;20818;-67
2023/02/22 09:06:06;;;;;;;109.80;37.75;;;;;;;;;;5052993;28;20251;-67
2023/02/22 09:08:32;;;;;;;100.32;35.92;;;;;;;;;;5078141;28;20204;-67
2023/02/22 09:10:57;;;;;;;100.10;34.53;;;;;;;;;;5051569;28;20185;-67
2023/02/22 09:13:23;;;;;;;91.88;33.42;;;;;;;;;;5055467;28;20318;-67
2023/02/22 09:15:48;;;;;;;97.18;33.42;;;;;;;;;;5064622;28;20195;-67
2023/02/22 09:18:13;;;;;;;96.25;33.97;;;;;;;;;;5050108;28;20272;-67
2023/02/22 09:20:40;;;;;;;103.05;34.88;;;;;;;;;;5048329;28;20205;-67
2023/02/22 09:23:08;;;;;;;102.85;36.15;;;;;;;;;;5048446;28;20184;-67
2023/02/22 09:25:34;;;;;;;100.57;34.80;;;;;;;;;;5062633;28;20200;-67
2023/02/22 09:28:00;;;;;;;102.07;34.90;;;;;;;;;;5060844;28;20277;-67
2023/02/22 09:30:31;;;;;;;105.55;34.92;;;;;;;;;;5051414;28;20271;-67
2023/02/22 09:33:08;;;;;;;101.20;35.95;;;;;;;;;;5054822;28;20216;-67
2023/02/22 09:35:34;;;;;;;95.75;35.00;;;;;;;;;;5060793;28;20201;-67
2023/02/22 09:38:01;;;;;;;92.63;33.28;;;;;;;;;;5047337;28;20178;-67
2023/02/22 09:40:31;;;;;;;84.78;31.73;;;;;;;;;;5057579;28;20313;-67
2023/02/22 09:43:34;;;;;;;87.88;32.85;;;;;;;;;;5048178;28;20272;-67
2023/02/22 09:46:28;;;;;;;81.18;30.77;;;;;;;;;;5051540;28;20188;-67
2023/02/22 09:49:18;;;;;;;71.95;29.13;;;;;;;;;;5061365;28;20271;-68
2023/02/22 09:52:06;;;;;;;70.60;30.48;;;;;;;;;;5046397;28;20186;-67
2023/02/22 09:54:42;;;;;;;73.85;28.45;;;;;;;;;;5053931;28;20253;-67
2023/02/22 09:57:15;;;;;;;67.80;27.33;;;;;;;;;;5062546;28;20263;-67
2023/02/22 09:59:47;;;;;;;66.25;28.33;;;;;;;;;;5054280;28;20173;-67
2023/02/22 10:02:34;;;;;;;65.35;28.17;;;;;;;;;;5052235;28;20256;-67
2023/02/22 10:05:16;;;;;;;60.28;27.05;;;;;;;;;;5060246;28;20558;-68
2023/02/22 10:07:54;;;;;;;57.88;26.55;;;;;;;;;;5067010;28;20199;-67
2023/02/22 10:10:22;;;;;;;58.40;25.85;;;;;;;;;;5052399;28;20590;-67
2023/02/22 10:12:58;;;;;;;57.95;26.67;;;;;;;;;;5057600;28;20227;-68
2023/02/22 10:15:42;;;;;;;68.25;28.83;;;;;;;;;;5053303;28;20189;-67
2023/02/22 10:18:29;;;;;;;61.03;27.27;;;;;;;;;;5053364;28;20353;-68
2023/02/22 10:21:06;;;;;;;65.63;27.30;;;;;;;;;;5066172;28;20212;-68
2023/02/22 10:23:37;;;;;;;65.03;28.50;;;;;;;;;;5067241;28;20180;-68
2023/02/22 10:26:27;;;;;;;62.45;28.75;;;;;;;;;;5045473;28;20334;-67
2023/02/22 10:28:59;;;;;;;63.80;29.20;;;;;;;;;;5052669;28;20278;-68
2023/02/22 10:31:32;;;;;;;68.68;29.80;;;;;;;;;;5057989;28;20239;-68
2023/02/22 10:34:01;;;;;;;67.45;29.48;;;;;;;;;;5052897;28;20202;-68
2023/02/22 10:36:27;;;;;;;67.95;30.40;;;;;;;;;;5057804;28;20185;-68
2023/02/22 10:39:19;;;;;;;63.47;29.98;;;;;;;;;;5064625;28;20185;-67
2023/02/22 10:41:50;;;;;;;64.85;29.65;;;;;;;;;;5060585;28;20235;-68
2023/02/22 10:44:15;;;;;;;60.22;27.98;;;;;;;;;;5056907;28;20260;-67
2023/02/22 10:46:42;;;;;;;61.20;27.67;;;;;;;;;;5063508;28;20579;-68
2023/02/22 10:49:09;;;;;;;60.28;29.58;;;;;;;;;;5056041;28;20597;-68
2023/02/22 10:51:35;;;;;;;69.13;30.35;;;;;;;;;;5056459;28;20223;-68
2023/02/22 10:54:27;;;;;;;67.13;29.85;;;;;;;;;;5050100;28;20209;-68
2023/02/22 10:56:54;;;;;;;63.80;30.23;;;;;;;;;;5062856;28;20200;-68
2023/02/22 10:59:33;;;;;;;65.38;30.67;;;;;;;;;;5053219;28;20304;-68
2023/02/22 11:02:06;;;;;;;58.65;29.83;;;;;;;;;;5054280;28;20206;-68
2023/02/22 11:04:53;;;;;;;59.92;29.42;;;;;;;;;;5051085;28;20511;-68
2023/02/22 11:07:35;;;;;;;52.78;27.38;;;;;;;;;;5065672;28;20264;-67
2023/02/22 11:10:00;;;;;;;53.58;26.33;;;;;;;;;;5052725;28;20182;-67
2023/02/22 11:12:28;;;;;;;52.03;27.08;;;;;;;;;;5053943;28;20200;-67
2023/02/22 11:14:53;;;;;;;51.97;27.63;;;;;;;;;;5052345;28;20185;-67
2023/02/22 11:17:29;;;;;;;50.97;27.70;;;;;;;;;;5058989;28;20184;-67
2023/02/22 11:19:56;;;;;;;54.80;27.77;;;;;;;;;;5058209;28;20199;-68
2023/02/22 11:22:29;;;;;;;51.53;26.38;;;;;;;;;;5051611;28;20208;-67
2023/02/22 11:24:59;;;;;;;52.75;26.90;;;;;;;;;;5069062;28;20208;-68
2023/02/22 11:27:45;;;;;;;55.45;27.00;;;;;;;;;;5068391;28;20553;-68
2023/02/22 11:30:30;;;;;;;52.50;27.67;;;;;;;;;;5070182;28;20268;-68
2023/02/22 11:33:16;;;;;;;53.38;27.70;;;;;;;;;;5052358;28;20785;-68
2023/02/22 11:35:54;;;;;;;51.50;26.92;;;;;;;;;;5049564;28;20189;-68
2023/02/22 11:38:26;;;;;;;52.35;27.73;;;;;;;;;;5049927;28;20655;-68
2023/02/22 11:41:15;;;;;;;53.58;27.67;;;;;;;;;;5053838;28;20181;-68
2023/02/22 11:43:43;;;;;;;50.97;26.60;;;;;;;;;;5055913;28;20173;-68
2023/02/22 11:46:16;;;;;;;50.67;27.17;;;;;;;;;;5056739;28;20190;-68
2023/02/22 11:49:07;;;;;;;54.60;27.85;;;;;;;;;;5067091;28;20195;-68
2023/02/22 11:51:55;;;;;;;49.22;26.83;;;;;;;;;;5059454;28;20195;-68
2023/02/22 11:54:30;;;;;;;54.90;27.60;;;;;;;;;;5064523;28;20228;-68
2023/02/22 11:57:20;;;;;;;51.58;26.75;;;;;;;;;;5061771;28;20203;-68
2023/02/22 12:00:14;;;;;;;47.63;26.30;;;;;;;;;;5051498;28;20190;-68
2023/02/22 12:02:52;;;;;;;53.05;27.55;;;;;;;;;;5059152;28;20189;-68
2023/02/22 12:05:59;;;;;;;55.70;29.27;;;;;;;;;;5069573;28;20204;-67
2023/02/22 12:08:42;;;;;;;50.78;27.92;;;;;;;;;;5038777;28;20644;-68
2023/02/22 12:11:17;;;;;;;50.25;27.63;;;;;;;;;;5055770;28;20189;-68
2023/02/22 12:14:08;;;;;;;46.38;26.02;;;;;;;;;;5056535;28;20225;-68
2023/02/22 12:17:01;;;;;;;48.67;27.55;;;;;;;;;;5054954;28;20193;-68
2023/02/22 12:19:37;;;;;;;46.88;26.15;;;;;;;;;;5056295;28;20186;-68
2023/02/22 12:22:14;;;;;;;47.40;26.63;;;;;;;;;;5048491;28;20253;-68
2023/02/22 12:24:44;;;;;;;42.67;24.77;;;;;;;;;;5051214;28;20181;-68
2023/02/22 12:27:12;;;;;;;45.70;25.27;;;;;;;;;;5052929;28;20189;-68
2023/02/22 12:29:49;;;;;;;43.22;25.85;;;;;;;;;;5048916;28;20229;-67
2023/02/22 12:32:40;;;;;;;42.78;24.10;;;;;;;;;;5055282;28;20220;-68
2023/02/22 12:35:19;;;;;;;46.47;26.08;;;;;;;;;;5065354;28;20207;-67
2023/02/22 12:37:54;;;;;;;45.38;25.42;;;;;;;;;;5056594;28;20218;-68
2023/02/22 12:40:52;;;;;;;43.35;24.70;;;;;;;;;;5054896;28;20193;-68
2023/02/22 12:43:31;;;;;;;44.90;24.40;;;;;;;;;;5052719;28;20192;-67
2023/02/22 12:46:05;;;;;;;44.08;24.92;;;;;;;;;;5053176;28;20214;-67
2023/02/22 12:48:36;;;;;;;43.10;24.30;;;;;;;;;;5060730;28;20181;-67
2023/02/22 12:51:31;;;;;;;43.63;24.05;;;;;;;;;;5060534;28;20270;-68
2023/02/22 12:54:34;;;;;;;45.22;25.08;;;;;;;;;;5064392;28;20197;-65
2023/02/22 12:57:04;;;;;;;40.17;24.35;;;;;;;;;;5061289;28;20208;-67
2023/02/22 12:59:39;;;;;;;40.30;22.65;;;;;;;;;;5051843;28;20284;-67
2023/02/22 13:02:21;;;;;;;39.88;22.27;;;;;;;;;;5053966;28;20220;-67
2023/02/22 13:04:47;;;;;;;38.30;21.92;;;;;;;;;;5053657;28;20177;-66
2023/02/22 13:07:45;;;;;;;38.30;23.17;;;;;;;;;;5057250;28;20188;-66
2023/02/22 13:10:25;;;;;;;37.70;22.27;;;;;;;;;;5050512;28;20185;-66
2023/02/22 13:13:17;;;;;;;38.33;21.70;;;;;;;;;;5063256;28;20211;-66
2023/02/22 13:15:59;;;;;;;42.22;22.58;;;;;;;;;;5057093;28;20181;-67
2023/02/22 13:18:33;;;;;;;38.45;21.52;;;;;;;;;;5062783;28;20660;-67
2023/02/22 13:21:02;;;;;;;40.92;22.10;;;;;;;;;;5054654;28;20487;-67
2023/02/22 13:24:02;;;;;;;34.85;21.13;;;;;;;;;;5054583;28;20181;-66
2023/02/22 13:26:49;;;;;;;37.20;21.30;;;;;;;;;;5046997;28;20201;-66
2023/02/22 13:29:30;;;;;;;34.25;19.52;;;;;;;;;;5054316;28;20269;-67
2023/02/22 13:32:22;;;;;;;34.67;19.33;;;;;;;;;;5057307;28;20685;-66
2023/02/22 13:34:54;;;;;;;33.83;18.90;;;;;;;;;;5048267;28;20571;-66
2023/02/22 13:37:51;;;;;;;35.63;20.20;;;;;;;;;;5065416;28;20192;-66
2023/02/22 13:40:41;;;;;;;36.15;19.17;;;;;;;;;;5056767;28;20210;-66
2023/02/22 13:43:22;;;;;;;35.13;19.15;;;;;;;;;;5049097;28;20656;-67
2023/02/22 13:46:27;;;;;;;36.13;20.13;;;;;;;;;;5050667;28;20193;-66
2023/02/22 13:49:19;;;;;;;36.67;19.67;;;;;;;;;;5065335;28;20191;-66
2023/02/22 13:51:49;;;;;;;35.55;19.63;;;;;;;;;;5051419;28;20230;-66
2023/02/22 13:54:23;;;;;;;37.42;20.67;;;;;;;;;;5061413;28;20273;-67
2023/02/22 13:56:50;;;;;;;38.22;19.65;;;;;;;;;;5053618;28;20196;-66
2023/02/22 13:59:27;;;;;;;37.58;20.75;;;;;;;;;;5050447;28;20180;-66
2023/02/22 14:01:53;;;;;;;34.28;18.40;;;;;;;;;;5054986;28;20593;-66
2023/02/22 14:04:27;;;;;;;33.40;17.38;;;;;;;;;;5054008;28;20294;-67
2023/02/22 14:06:55;;;;;;;31.95;18.42;;;;;;;;;;5066234;28;20189;-66
2023/02/22 14:09:44;;;;;;;32.03;17.73;;;;;;;;;;5053111;28;20185;-67
2023/02/22 14:12:29;;;;;;;32.30;18.13;;;;;;;;;;5055103;28;20275;-67
2023/02/22 14:15:16;;;;;;;34.30;19.67;;;;;;;;;;5056060;28;20632;-66
2023/02/22 14:17:46;;;;;;;32.50;17.77;;;;;;;;;;5054285;28;20613;-66
2023/02/22 14:20:13;;;;;;;33.88;18.25;;;;;;;;;;5047043;28;20208;-66
2023/02/22 14:22:41;;;;;;;32.60;18.30;;;;;;;;;;5052650;28;20204;-66
2023/02/22 14:25:35;;;;;;;35.13;19.40;;;;;;;;;;5052449;28;20198;-66
2023/02/22 14:28:02;;;;;;;36.47;18.42;;;;;;;;;;5056873;28;20220;-66
2023/02/22 14:30:37;;;;;;;35.17;18.75;;;;;;;;;;5060657;28;20315;-67
2023/02/22 14:33:23;;;;;;;33.65;19.38;;;;;;;;;;5059722;28;20208;-66
2023/02/22 14:35:49;;;;;;;36.70;19.88;;;;;;;;;;5054845;28;20364;-67
2023/02/22 14:38:18;;;;;;;33.97;18.80;;;;;;;;;;5057580;28;20225;-67
2023/02/22 14:40:48;;;;;;;34.38;18.45;;;;;;;;;;5054506;28;20182;-66
2023/02/22 14:43:18;;;;;;;36.55;19.52;;;;;;;;;;5055165;28;20239;-66